sensor_id;sensor_type;location;lat;lon;timestamp;P1;durP1;ratioP1;P2;durP2;ratioP2
69716;SDS011;67420;46.144;19.666;2024-01-16T00:07:54;11.48;;;8.27;;
69716;SDS011;67420;46.144;19.666;2024-01-16T00:17:56;11.02;;;7.50;;
69716;SDS011;67420;46.144;19.666;2024-01-16T00:27:59;10.88;;;6.85;;
69716;SDS011;67420;46.144;19.666;2024-01-16T00:38:02;7.63;;;5.93;;
69716;SDS011;67420;46.144;19.666;2024-01-16T00:48:05;8.20;;;5.78;;
69716;SDS011;67420;46.144;19.666;2024-01-16T00:58:08;7.00;;;5.30;;
69716;SDS011;67420;46.144;19.666;2024-01-16T01:08:10;6.30;;;4.50;;
69716;SDS011;67420;46.144;19.666;2024-01-16T01:18:12;5.45;;;4.35;;
69716;SDS011;67420;46.144;19.666;2024-01-16T01:28:15;4.82;;;3.80;;
69716;SDS011;67420;46.144;19.666;2024-01-16T01:38:17;5.10;;;3.83;;
69716;SDS011;67420;46.144;19.666;2024-01-16T01:48:20;4.65;;;3.47;;
69716;SDS011;67420;46.144;19.666;2024-01-16T01:58:25;4.10;;;3.40;;
69716;SDS011;67420;46.144;19.666;2024-01-16T02:08:27;3.80;;;2.80;;
69716;SDS011;67420;46.144;19.666;2024-01-16T02:18:29;3.38;;;2.90;;
69716;SDS011;67420;46.144;19.666;2024-01-16T02:28:32;2.95;;;2.55;;
69716;SDS011;67420;46.144;19.666;2024-01-16T02:38:35;4.07;;;2.58;;
69716;SDS011;67420;46.144;19.666;2024-01-16T02:48:39;2.95;;;2.55;;
69716;SDS011;67420;46.144;19.666;2024-01-16T02:58:41;3.20;;;2.50;;
69716;SDS011;67420;46.144;19.666;2024-01-16T03:08:44;2.30;;;2.10;;
69716;SDS011;67420;46.144;19.666;2024-01-16T03:18:46;2.33;;;2.00;;
69716;SDS011;67420;46.144;19.666;2024-01-16T03:28:49;2.35;;;2.15;;
69716;SDS011;67420;46.144;19.666;2024-01-16T03:38:51;2.17;;;1.83;;
69716;SDS011;67420;46.144;19.666;2024-01-16T03:48:54;2.00;;;1.70;;
69716;SDS011;67420;46.144;19.666;2024-01-16T03:58:56;1.60;;;1.50;;
69716;SDS011;67420;46.144;19.666;2024-01-16T04:08:58;1.75;;;1.63;;
69716;SDS011;67420;46.144;19.666;2024-01-16T04:19:00;1.70;;;1.60;;
69716;SDS011;67420;46.144;19.666;2024-01-16T04:29:02;1.40;;;1.30;;
69716;SDS011;67420;46.144;19.666;2024-01-16T04:39:06;1.30;;;1.20;;
69716;SDS011;67420;46.144;19.666;2024-01-16T04:49:10;1.52;;;1.30;;
69716;SDS011;67420;46.144;19.666;2024-01-16T04:59:13;1.73;;;1.63;;
69716;SDS011;67420;46.144;19.666;2024-01-16T05:09:17;1.60;;;1.48;;
69716;SDS011;67420;46.144;19.666;2024-01-16T05:19:21;1.63;;;1.52;;
69716;SDS011;67420;46.144;19.666;2024-01-16T05:29:23;1.90;;;1.80;;
69716;SDS011;67420;46.144;19.666;2024-01-16T05:39:25;1.90;;;1.70;;
69716;SDS011;67420;46.144;19.666;2024-01-16T05:49:27;1.58;;;1.48;;
69716;SDS011;67420;46.144;19.666;2024-01-16T05:59:30;1.70;;;1.60;;
69716;SDS011;67420;46.144;19.666;2024-01-16T06:09:33;1.67;;;1.58;;
69716;SDS011;67420;46.144;19.666;2024-01-16T06:19:35;2.33;;;2.13;;
69716;SDS011;67420;46.144;19.666;2024-01-16T06:29:38;2.97;;;2.60;;
69716;SDS011;67420;46.144;19.666;2024-01-16T06:39:40;4.03;;;3.17;;
69716;SDS011;67420;46.144;19.666;2024-01-16T06:49:42;3.38;;;2.80;;
69716;SDS011;67420;46.144;19.666;2024-01-16T06:59:44;3.22;;;2.85;;
69716;SDS011;67420;46.144;19.666;2024-01-16T07:09:47;3.55;;;3.03;;
69716;SDS011;67420;46.144;19.666;2024-01-16T07:19:49;3.83;;;2.95;;
69716;SDS011;67420;46.144;19.666;2024-01-16T07:29:51;3.30;;;2.90;;
69716;SDS011;67420;46.144;19.666;2024-01-16T07:39:54;9.85;;;3.25;;
69716;SDS011;67420;46.144;19.666;2024-01-16T07:49:56;4.22;;;3.28;;
69716;SDS011;67420;46.144;19.666;2024-01-16T07:59:58;4.20;;;2.83;;
69716;SDS011;67420;46.144;19.666;2024-01-16T08:10:00;2.75;;;2.55;;
69716;SDS011;67420;46.144;19.666;2024-01-16T08:20:03;3.38;;;2.67;;
69716;SDS011;67420;46.144;19.666;2024-01-16T08:30:05;4.43;;;2.72;;
69716;SDS011;67420;46.144;19.666;2024-01-16T08:40:10;6.28;;;2.70;;
69716;SDS011;67420;46.144;19.666;2024-01-16T08:50:13;8.85;;;2.25;;
69716;SDS011;67420;46.144;19.666;2024-01-16T09:00:16;2.60;;;2.40;;
69716;SDS011;67420;46.144;19.666;2024-01-16T09:10:19;3.30;;;2.60;;
69716;SDS011;67420;46.144;19.666;2024-01-16T09:20:21;4.45;;;2.58;;
69716;SDS011;67420;46.144;19.666;2024-01-16T09:30:23;2.58;;;2.05;;
69716;SDS011;67420;46.144;19.666;2024-01-16T09:40:25;2.47;;;1.85;;
69716;SDS011;67420;46.144;19.666;2024-01-16T09:50:28;2.63;;;2.03;;
69716;SDS011;67420;46.144;19.666;2024-01-16T10:00:31;2.13;;;1.90;;
69716;SDS011;67420;46.144;19.666;2024-01-16T10:10:35;2.20;;;2.00;;
69716;SDS011;67420;46.144;19.666;2024-01-16T10:20:49;2.40;;;2.20;;
69716;SDS011;67420;46.144;19.666;2024-01-16T10:30:57;2.47;;;2.00;;
69716;SDS011;67420;46.144;19.666;2024-01-16T10:41:05;2.28;;;1.90;;
69716;SDS011;67420;46.144;19.666;2024-01-16T10:51:13;4.50;;;2.00;;
69716;SDS011;67420;46.144;19.666;2024-01-16T11:01:16;2.67;;;1.92;;
69716;SDS011;67420;46.144;19.666;2024-01-16T11:11:19;2.40;;;2.20;;
69716;SDS011;67420;46.144;19.666;2024-01-16T11:21:23;2.67;;;2.38;;
69716;SDS011;67420;46.144;19.666;2024-01-16T11:31:31;2.40;;;2.17;;
69716;SDS011;67420;46.144;19.666;2024-01-16T11:51:56;2.10;;;1.90;;
69716;SDS011;67420;46.144;19.666;2024-01-16T12:01:58;2.60;;;2.30;;
69716;SDS011;67420;46.144;19.666;2024-01-16T12:12:06;2.47;;;2.08;;
69716;SDS011;67420;46.144;19.666;2024-01-16T12:22:09;2.50;;;2.28;;
69716;SDS011;67420;46.144;19.666;2024-01-16T12:32:16;2.88;;;2.30;;
69716;SDS011;67420;46.144;19.666;2024-01-16T12:42:20;2.15;;;1.92;;
69716;SDS011;67420;46.144;19.666;2024-01-16T12:52:25;2.38;;;2.17;;
69716;SDS011;67420;46.144;19.666;2024-01-16T13:02:28;2.83;;;2.30;;
69716;SDS011;67420;46.144;19.666;2024-01-16T13:12:32;2.90;;;2.47;;
69716;SDS011;67420;46.144;19.666;2024-01-16T13:22:35;2.40;;;2.13;;
69716;SDS011;67420;46.144;19.666;2024-01-16T13:32:47;2.88;;;2.58;;
69716;SDS011;67420;46.144;19.666;2024-01-16T13:42:49;2.85;;;2.53;;
69716;SDS011;67420;46.144;19.666;2024-01-16T13:52:52;2.60;;;2.40;;
69716;SDS011;67420;46.144;19.666;2024-01-16T14:02:55;2.55;;;2.35;;
69716;SDS011;67420;46.144;19.666;2024-01-16T14:12:57;3.55;;;3.00;;
69716;SDS011;67420;46.144;19.666;2024-01-16T14:22:59;3.83;;;3.00;;
69716;SDS011;67420;46.144;19.666;2024-01-16T14:33:02;5.32;;;3.63;;
69716;SDS011;67420;46.144;19.666;2024-01-16T14:43:05;6.07;;;5.07;;
69716;SDS011;67420;46.144;19.666;2024-01-16T14:53:07;5.32;;;4.68;;
69716;SDS011;67420;46.144;19.666;2024-01-16T15:03:09;6.30;;;5.60;;
69716;SDS011;67420;46.144;19.666;2024-01-16T15:13:12;7.43;;;5.97;;
69716;SDS011;67420;46.144;19.666;2024-01-16T15:23:14;8.52;;;6.60;;
69716;SDS011;67420;46.144;19.666;2024-01-16T15:33:16;9.70;;;7.68;;
69716;SDS011;67420;46.144;19.666;2024-01-16T15:43:18;9.07;;;7.65;;
69716;SDS011;67420;46.144;19.666;2024-01-16T15:53:20;9.07;;;7.30;;
69716;SDS011;67420;46.144;19.666;2024-01-16T16:03:22;8.65;;;7.05;;
69716;SDS011;67420;46.144;19.666;2024-01-16T16:13:25;8.27;;;6.70;;
69716;SDS011;67420;46.144;19.666;2024-01-16T16:23:32;9.07;;;6.82;;
69716;SDS011;67420;46.144;19.666;2024-01-16T16:33:35;8.52;;;7.10;;
69716;SDS011;67420;46.144;19.666;2024-01-16T16:43:37;9.15;;;7.68;;
69716;SDS011;67420;46.144;19.666;2024-01-16T16:53:39;13.10;;;9.02;;
69716;SDS011;67420;46.144;19.666;2024-01-16T17:03:45;12.48;;;9.48;;
69716;SDS011;67420;46.144;19.666;2024-01-16T17:13:50;13.00;;;9.32;;
69716;SDS011;67420;46.144;19.666;2024-01-16T17:23:52;11.65;;;8.43;;
69716;SDS011;67420;46.144;19.666;2024-01-16T17:33:55;11.20;;;8.55;;
69716;SDS011;67420;46.144;19.666;2024-01-16T17:43:58;13.20;;;8.85;;
69716;SDS011;67420;46.144;19.666;2024-01-16T17:54:00;11.25;;;8.73;;
69716;SDS011;67420;46.144;19.666;2024-01-16T18:04:02;11.45;;;8.43;;
69716;SDS011;67420;46.144;19.666;2024-01-16T18:14:04;11.27;;;8.57;;
69716;SDS011;67420;46.144;19.666;2024-01-16T18:24:06;12.38;;;8.70;;
69716;SDS011;67420;46.144;19.666;2024-01-16T18:34:09;12.73;;;8.73;;
69716;SDS011;67420;46.144;19.666;2024-01-16T18:44:16;12.07;;;8.48;;
69716;SDS011;67420;46.144;19.666;2024-01-16T18:54:19;11.43;;;8.75;;
69716;SDS011;67420;46.144;19.666;2024-01-16T19:04:22;13.18;;;9.18;;
69716;SDS011;67420;46.144;19.666;2024-01-16T19:14:25;13.45;;;9.55;;
69716;SDS011;67420;46.144;19.666;2024-01-16T19:24:27;12.75;;;9.75;;
69716;SDS011;67420;46.144;19.666;2024-01-16T19:34:29;19.15;;;12.70;;
69716;SDS011;67420;46.144;19.666;2024-01-16T19:44:32;27.88;;;16.10;;
69716;SDS011;67420;46.144;19.666;2024-01-16T19:54:34;33.17;;;17.60;;
69716;SDS011;67420;46.144;19.666;2024-01-16T20:04:38;46.22;;;20.95;;
69716;SDS011;67420;46.144;19.666;2024-01-16T20:14:41;40.72;;;21.30;;
69716;SDS011;67420;46.144;19.666;2024-01-16T20:24:43;47.10;;;21.98;;
69716;SDS011;67420;46.144;19.666;2024-01-16T20:34:46;52.70;;;25.45;;
69716;SDS011;67420;46.144;19.666;2024-01-16T20:44:48;53.22;;;25.40;;
69716;SDS011;67420;46.144;19.666;2024-01-16T20:54:50;54.08;;;25.10;;
69716;SDS011;67420;46.144;19.666;2024-01-16T21:04:53;44.65;;;24.23;;
69716;SDS011;67420;46.144;19.666;2024-01-16T21:14:55;46.10;;;24.35;;
69716;SDS011;67420;46.144;19.666;2024-01-16T21:24:57;41.75;;;24.38;;
69716;SDS011;67420;46.144;19.666;2024-01-16T21:34:59;39.65;;;23.70;;
69716;SDS011;67420;46.144;19.666;2024-01-16T21:45:01;50.88;;;23.70;;
69716;SDS011;67420;46.144;19.666;2024-01-16T21:55:04;41.78;;;23.40;;
69716;SDS011;67420;46.144;19.666;2024-01-16T22:05:07;37.22;;;21.85;;
69716;SDS011;67420;46.144;19.666;2024-01-16T22:15:12;34.90;;;21.05;;
69716;SDS011;67420;46.144;19.666;2024-01-16T22:25:15;36.13;;;21.25;;
69716;SDS011;67420;46.144;19.666;2024-01-16T22:35:17;34.35;;;20.83;;
69716;SDS011;67420;46.144;19.666;2024-01-16T22:45:20;34.85;;;20.92;;
69716;SDS011;67420;46.144;19.666;2024-01-16T22:55:22;32.70;;;19.40;;
69716;SDS011;67420;46.144;19.666;2024-01-16T23:05:25;30.80;;;18.98;;
69716;SDS011;67420;46.144;19.666;2024-01-16T23:15:29;33.92;;;19.38;;
69716;SDS011;67420;46.144;19.666;2024-01-16T23:25:31;31.00;;;18.73;;
69716;SDS011;67420;46.144;19.666;2024-01-16T23:35:34;28.27;;;18.55;;
69716;SDS011;67420;46.144;19.666;2024-01-16T23:45:36;28.30;;;18.40;;
69716;SDS011;67420;46.144;19.666;2024-01-16T23:55:39;25.17;;;16.83;;
